sensor_id;sensor_type;location;lat;lon;timestamp;P1;durP1;ratioP1;P2;durP2;ratioP2
51066;SDS011;37112;45.892;-123.962;2023-07-29T00:00:17;8.80;;;2.90;;
51066;SDS011;37112;45.892;-123.962;2023-07-29T00:02:51;18.00;;;3.00;;
51066;SDS011;37112;45.892;-123.962;2023-07-29T00:05:07;18.90;;;3.40;;
51066;SDS011;37112;45.892;-123.962;2023-07-29T00:07:21;10.30;;;2.60;;
51066;SDS011;37112;45.892;-123.962;2023-07-29T00:09:35;12.20;;;3.40;;
51066;SDS011;37112;45.892;-123.962;2023-07-29T00:11:48;13.00;;;2.90;;
51066;SDS011;37112;45.892;-123.962;2023-07-29T00:14:02;12.70;;;3.60;;
51066;SDS011;37112;45.892;-123.962;2023-07-29T00:16:16;23.60;;;3.10;;
51066;SDS011;37112;45.892;-123.962;2023-07-29T00:18:30;14.30;;;3.00;;
51066;SDS011;37112;45.892;-123.962;2023-07-29T00:20:46;17.60;;;3.90;;
51066;SDS011;37112;45.892;-123.962;2023-07-29T00:22:59;13.00;;;3.40;;
51066;SDS011;37112;45.892;-123.962;2023-07-29T00:25:13;15.00;;;3.90;;
51066;SDS011;37112;45.892;-123.962;2023-07-29T00:27:26;12.50;;;2.60;;
51066;SDS011;37112;45.892;-123.962;2023-07-29T00:29:39;27.50;;;4.40;;
51066;SDS011;37112;45.892;-123.962;2023-07-29T00:31:53;13.10;;;2.80;;
51066;SDS011;37112;45.892;-123.962;2023-07-29T00:34:07;7.00;;;2.20;;
51066;SDS011;37112;45.892;-123.962;2023-07-29T00:36:25;10.00;;;2.50;;
51066;SDS011;37112;45.892;-123.962;2023-07-29T00:38:38;23.30;;;3.40;;
51066;SDS011;37112;45.892;-123.962;2023-07-29T00:40:52;20.30;;;3.00;;
51066;SDS011;37112;45.892;-123.962;2023-07-29T00:43:07;16.20;;;3.40;;
51066;SDS011;37112;45.892;-123.962;2023-07-29T00:45:22;14.50;;;3.00;;
51066;SDS011;37112;45.892;-123.962;2023-07-29T00:47:37;24.20;;;4.20;;
51066;SDS011;37112;45.892;-123.962;2023-07-29T00:49:52;14.40;;;2.70;;
51066;SDS011;37112;45.892;-123.962;2023-07-29T00:52:06;13.10;;;3.10;;
51066;SDS011;37112;45.892;-123.962;2023-07-29T00:54:23;12.80;;;2.50;;
51066;SDS011;37112;45.892;-123.962;2023-07-29T00:56:37;19.40;;;3.40;;
51066;SDS011;37112;45.892;-123.962;2023-07-29T00:58:52;16.70;;;3.00;;
51066;SDS011;37112;45.892;-123.962;2023-07-29T01:01:12;23.90;;;4.60;;
51066;SDS011;37112;45.892;-123.962;2023-07-29T01:03:26;10.40;;;2.70;;
51066;SDS011;37112;45.892;-123.962;2023-07-29T01:05:43;17.10;;;3.90;;
51066;SDS011;37112;45.892;-123.962;2023-07-29T01:08:08;11.10;;;2.60;;
51066;SDS011;37112;45.892;-123.962;2023-07-29T01:10:34;16.00;;;3.30;;
51066;SDS011;37112;45.892;-123.962;2023-07-29T01:12:56;17.90;;;3.80;;
51066;SDS011;37112;45.892;-123.962;2023-07-29T01:15:18;19.40;;;3.20;;
51066;SDS011;37112;45.892;-123.962;2023-07-29T01:17:38;29.90;;;2.50;;
51066;SDS011;37112;45.892;-123.962;2023-07-29T01:19:59;12.50;;;2.90;;
51066;SDS011;37112;45.892;-123.962;2023-07-29T01:22:17;18.30;;;3.80;;
51066;SDS011;37112;45.892;-123.962;2023-07-29T01:24:35;14.30;;;3.20;;
51066;SDS011;37112;45.892;-123.962;2023-07-29T01:26:48;18.20;;;3.10;;
51066;SDS011;37112;45.892;-123.962;2023-07-29T01:29:02;17.80;;;3.60;;
51066;SDS011;37112;45.892;-123.962;2023-07-29T01:31:16;13.40;;;2.80;;
51066;SDS011;37112;45.892;-123.962;2023-07-29T01:35:51;12.90;;;3.00;;
51066;SDS011;37112;45.892;-123.962;2023-07-29T01:38:09;16.10;;;3.70;;
51066;SDS011;37112;45.892;-123.962;2023-07-29T01:40:25;12.10;;;3.20;;
51066;SDS011;37112;45.892;-123.962;2023-07-29T01:42:40;13.40;;;3.10;;
51066;SDS011;37112;45.892;-123.962;2023-07-29T01:44:53;20.50;;;4.20;;
51066;SDS011;37112;45.892;-123.962;2023-07-29T01:47:08;16.90;;;3.50;;
51066;SDS011;37112;45.892;-123.962;2023-07-29T01:49:22;16.30;;;3.10;;
51066;SDS011;37112;45.892;-123.962;2023-07-29T01:51:40;9.50;;;2.80;;
51066;SDS011;37112;45.892;-123.962;2023-07-29T01:53:54;17.10;;;3.00;;
51066;SDS011;37112;45.892;-123.962;2023-07-29T01:56:09;19.10;;;3.50;;
51066;SDS011;37112;45.892;-123.962;2023-07-29T01:58:30;15.00;;;3.00;;
51066;SDS011;37112;45.892;-123.962;2023-07-29T02:00:44;16.80;;;2.90;;
51066;SDS011;37112;45.892;-123.962;2023-07-29T02:02:57;16.30;;;3.30;;
51066;SDS011;37112;45.892;-123.962;2023-07-29T02:05:11;20.60;;;3.30;;
51066;SDS011;37112;45.892;-123.962;2023-07-29T02:07:25;23.70;;;3.50;;
51066;SDS011;37112;45.892;-123.962;2023-07-29T02:09:38;13.70;;;2.50;;
51066;SDS011;37112;45.892;-123.962;2023-07-29T02:11:52;16.40;;;2.90;;
51066;SDS011;37112;45.892;-123.962;2023-07-29T02:14:16;11.00;;;2.90;;
51066;SDS011;37112;45.892;-123.962;2023-07-29T02:16:31;17.20;;;3.10;;
51066;SDS011;37112;45.892;-123.962;2023-07-29T02:18:46;12.40;;;2.60;;
51066;SDS011;37112;45.892;-123.962;2023-07-29T02:21:05;14.20;;;2.30;;
51066;SDS011;37112;45.892;-123.962;2023-07-29T02:23:19;21.90;;;3.40;;
51066;SDS011;37112;45.892;-123.962;2023-07-29T02:25:34;17.20;;;3.70;;
51066;SDS011;37112;45.892;-123.962;2023-07-29T02:27:51;19.70;;;2.90;;
51066;SDS011;37112;45.892;-123.962;2023-07-29T02:30:05;15.80;;;2.50;;
51066;SDS011;37112;45.892;-123.962;2023-07-29T02:32:20;12.20;;;3.10;;
51066;SDS011;37112;45.892;-123.962;2023-07-29T02:34:33;20.30;;;3.00;;
51066;SDS011;37112;45.892;-123.962;2023-07-29T02:36:46;22.20;;;3.00;;
51066;SDS011;37112;45.892;-123.962;2023-07-29T02:38:59;24.90;;;3.70;;
51066;SDS011;37112;45.892;-123.962;2023-07-29T02:41:14;17.20;;;2.70;;
51066;SDS011;37112;45.892;-123.962;2023-07-29T02:43:27;16.30;;;3.80;;
51066;SDS011;37112;45.892;-123.962;2023-07-29T02:45:40;18.40;;;3.70;;
51066;SDS011;37112;45.892;-123.962;2023-07-29T02:47:54;11.60;;;2.20;;
51066;SDS011;37112;45.892;-123.962;2023-07-29T02:50:08;18.00;;;3.10;;
51066;SDS011;37112;45.892;-123.962;2023-07-29T02:52:22;18.30;;;3.60;;
51066;SDS011;37112;45.892;-123.962;2023-07-29T02:54:35;16.50;;;3.70;;
51066;SDS011;37112;45.892;-123.962;2023-07-29T02:56:49;19.10;;;2.80;;
51066;SDS011;37112;45.892;-123.962;2023-07-29T02:59:03;12.70;;;3.20;;
51066;SDS011;37112;45.892;-123.962;2023-07-29T03:01:16;20.00;;;3.60;;
51066;SDS011;37112;45.892;-123.962;2023-07-29T03:03:30;11.80;;;2.30;;
51066;SDS011;37112;45.892;-123.962;2023-07-29T03:05:43;8.10;;;2.40;;
51066;SDS011;37112;45.892;-123.962;2023-07-29T03:07:57;23.20;;;3.20;;
51066;SDS011;37112;45.892;-123.962;2023-07-29T03:10:14;13.50;;;2.20;;
51066;SDS011;37112;45.892;-123.962;2023-07-29T03:12:27;9.70;;;2.80;;
51066;SDS011;37112;45.892;-123.962;2023-07-29T03:14:49;12.70;;;3.10;;
51066;SDS011;37112;45.892;-123.962;2023-07-29T03:17:04;18.90;;;3.70;;
51066;SDS011;37112;45.892;-123.962;2023-07-29T03:19:18;21.50;;;4.70;;
51066;SDS011;37112;45.892;-123.962;2023-07-29T03:21:31;32.80;;;3.50;;
51066;SDS011;37112;45.892;-123.962;2023-07-29T03:23:45;24.70;;;3.40;;
51066;SDS011;37112;45.892;-123.962;2023-07-29T03:26:00;25.80;;;4.50;;
51066;SDS011;37112;45.892;-123.962;2023-07-29T03:28:18;27.40;;;4.80;;
51066;SDS011;37112;45.892;-123.962;2023-07-29T03:30:31;22.00;;;4.70;;
51066;SDS011;37112;45.892;-123.962;2023-07-29T03:32:47;24.10;;;3.90;;
51066;SDS011;37112;45.892;-123.962;2023-07-29T03:35:01;15.10;;;3.70;;
51066;SDS011;37112;45.892;-123.962;2023-07-29T03:37:15;21.10;;;4.30;;
51066;SDS011;37112;45.892;-123.962;2023-07-29T03:39:29;24.70;;;5.10;;
51066;SDS011;37112;45.892;-123.962;2023-07-29T03:41:42;22.30;;;3.80;;
51066;SDS011;37112;45.892;-123.962;2023-07-29T03:43:55;21.70;;;4.20;;
51066;SDS011;37112;45.892;-123.962;2023-07-29T03:46:08;30.50;;;5.40;;
51066;SDS011;37112;45.892;-123.962;2023-07-29T03:48:26;21.00;;;4.40;;
51066;SDS011;37112;45.892;-123.962;2023-07-29T03:50:40;8.70;;;1.90;;
51066;SDS011;37112;45.892;-123.962;2023-07-29T03:52:54;6.00;;;1.90;;
51066;SDS011;37112;45.892;-123.962;2023-07-29T03:55:08;8.50;;;1.70;;
51066;SDS011;37112;45.892;-123.962;2023-07-29T03:57:22;6.80;;;2.30;;
51066;SDS011;37112;45.892;-123.962;2023-07-29T03:59:37;5.80;;;1.90;;
51066;SDS011;37112;45.892;-123.962;2023-07-29T04:01:50;4.80;;;1.60;;
51066;SDS011;37112;45.892;-123.962;2023-07-29T04:04:04;4.90;;;2.00;;
51066;SDS011;37112;45.892;-123.962;2023-07-29T04:06:17;3.30;;;1.80;;
51066;SDS011;37112;45.892;-123.962;2023-07-29T04:08:32;6.30;;;2.70;;
51066;SDS011;37112;45.892;-123.962;2023-07-29T04:10:45;3.20;;;2.90;;
51066;SDS011;37112;45.892;-123.962;2023-07-29T04:12:59;6.80;;;3.00;;
51066;SDS011;37112;45.892;-123.962;2023-07-29T04:15:12;7.10;;;3.10;;
51066;SDS011;37112;45.892;-123.962;2023-07-29T04:17:26;8.60;;;5.00;;
51066;SDS011;37112;45.892;-123.962;2023-07-29T04:19:40;12.60;;;6.30;;
51066;SDS011;37112;45.892;-123.962;2023-07-29T04:21:53;6.60;;;4.90;;
51066;SDS011;37112;45.892;-123.962;2023-07-29T04:24:07;8.30;;;5.40;;
51066;SDS011;37112;45.892;-123.962;2023-07-29T04:26:21;7.30;;;5.00;;
51066;SDS011;37112;45.892;-123.962;2023-07-29T04:28:34;9.00;;;5.30;;
51066;SDS011;37112;45.892;-123.962;2023-07-29T04:30:47;11.30;;;6.90;;
51066;SDS011;37112;45.892;-123.962;2023-07-29T04:33:00;7.50;;;5.10;;
51066;SDS011;37112;45.892;-123.962;2023-07-29T04:35:17;4.10;;;3.10;;
51066;SDS011;37112;45.892;-123.962;2023-07-29T04:37:31;5.20;;;3.10;;
51066;SDS011;37112;45.892;-123.962;2023-07-29T04:39:45;6.40;;;3.90;;
51066;SDS011;37112;45.892;-123.962;2023-07-29T04:41:58;6.90;;;3.90;;
51066;SDS011;37112;45.892;-123.962;2023-07-29T04:44:12;7.10;;;5.10;;
51066;SDS011;37112;45.892;-123.962;2023-07-29T04:46:27;7.00;;;4.20;;
51066;SDS011;37112;45.892;-123.962;2023-07-29T04:48:43;7.80;;;5.40;;
51066;SDS011;37112;45.892;-123.962;2023-07-29T04:50:56;10.90;;;4.50;;
51066;SDS011;37112;45.892;-123.962;2023-07-29T04:53:10;7.20;;;4.40;;
51066;SDS011;37112;45.892;-123.962;2023-07-29T04:55:23;6.30;;;5.00;;
51066;SDS011;37112;45.892;-123.962;2023-07-29T04:57:37;9.20;;;4.90;;
51066;SDS011;37112;45.892;-123.962;2023-07-29T04:59:50;9.10;;;6.40;;
51066;SDS011;37112;45.892;-123.962;2023-07-29T05:02:04;7.70;;;5.50;;
51066;SDS011;37112;45.892;-123.962;2023-07-29T05:04:18;10.80;;;5.30;;
51066;SDS011;37112;45.892;-123.962;2023-07-29T05:06:33;10.20;;;5.70;;
51066;SDS011;37112;45.892;-123.962;2023-07-29T05:08:46;11.10;;;5.80;;
51066;SDS011;37112;45.892;-123.962;2023-07-29T05:10:59;9.40;;;5.10;;
51066;SDS011;37112;45.892;-123.962;2023-07-29T05:13:12;7.90;;;4.70;;
51066;SDS011;37112;45.892;-123.962;2023-07-29T05:15:26;8.40;;;4.10;;
51066;SDS011;37112;45.892;-123.962;2023-07-29T05:17:40;6.50;;;5.40;;
51066;SDS011;37112;45.892;-123.962;2023-07-29T05:19:53;6.90;;;4.30;;
51066;SDS011;37112;45.892;-123.962;2023-07-29T05:22:08;6.90;;;3.70;;
51066;SDS011;37112;45.892;-123.962;2023-07-29T05:24:24;7.10;;;3.40;;
51066;SDS011;37112;45.892;-123.962;2023-07-29T05:26:39;10.40;;;3.90;;
51066;SDS011;37112;45.892;-123.962;2023-07-29T05:28:53;10.40;;;5.10;;
51066;SDS011;37112;45.892;-123.962;2023-07-29T05:31:06;6.60;;;4.80;;
51066;SDS011;37112;45.892;-123.962;2023-07-29T05:33:20;7.50;;;5.30;;
51066;SDS011;37112;45.892;-123.962;2023-07-29T05:35:33;12.00;;;5.40;;
51066;SDS011;37112;45.892;-123.962;2023-07-29T05:37:48;10.10;;;5.20;;
51066;SDS011;37112;45.892;-123.962;2023-07-29T05:40:01;12.50;;;4.30;;
51066;SDS011;37112;45.892;-123.962;2023-07-29T05:42:17;7.80;;;4.40;;
51066;SDS011;37112;45.892;-123.962;2023-07-29T05:44:31;9.60;;;4.30;;
51066;SDS011;37112;45.892;-123.962;2023-07-29T05:46:47;8.00;;;3.70;;
51066;SDS011;37112;45.892;-123.962;2023-07-29T05:49:02;7.10;;;3.30;;
51066;SDS011;37112;45.892;-123.962;2023-07-29T05:51:16;4.30;;;3.10;;
51066;SDS011;37112;45.892;-123.962;2023-07-29T05:53:35;6.00;;;3.30;;
51066;SDS011;37112;45.892;-123.962;2023-07-29T05:55:49;7.30;;;3.50;;
51066;SDS011;37112;45.892;-123.962;2023-07-29T05:58:03;4.30;;;2.50;;
51066;SDS011;37112;45.892;-123.962;2023-07-29T06:00:19;7.70;;;2.80;;
51066;SDS011;37112;45.892;-123.962;2023-07-29T06:02:33;5.30;;;2.70;;
51066;SDS011;37112;45.892;-123.962;2023-07-29T06:04:48;4.00;;;2.50;;
51066;SDS011;37112;45.892;-123.962;2023-07-29T06:07:02;3.40;;;1.70;;
51066;SDS011;37112;45.892;-123.962;2023-07-29T06:09:16;8.10;;;1.90;;
51066;SDS011;37112;45.892;-123.962;2023-07-29T06:11:30;4.00;;;2.20;;
51066;SDS011;37112;45.892;-123.962;2023-07-29T06:13:44;5.10;;;2.00;;
51066;SDS011;37112;45.892;-123.962;2023-07-29T06:15:59;2.60;;;2.00;;
51066;SDS011;37112;45.892;-123.962;2023-07-29T06:18:14;5.80;;;1.90;;
51066;SDS011;37112;45.892;-123.962;2023-07-29T06:20:28;3.70;;;2.80;;
51066;SDS011;37112;45.892;-123.962;2023-07-29T06:22:42;5.10;;;3.10;;
51066;SDS011;37112;45.892;-123.962;2023-07-29T06:24:56;5.70;;;2.80;;
51066;SDS011;37112;45.892;-123.962;2023-07-29T06:27:09;7.80;;;3.40;;
51066;SDS011;37112;45.892;-123.962;2023-07-29T06:29:22;3.60;;;2.40;;
51066;SDS011;37112;45.892;-123.962;2023-07-29T06:31:36;5.90;;;2.70;;
51066;SDS011;37112;45.892;-123.962;2023-07-29T06:33:51;6.60;;;2.70;;
51066;SDS011;37112;45.892;-123.962;2023-07-29T06:36:05;6.50;;;2.60;;
51066;SDS011;37112;45.892;-123.962;2023-07-29T06:38:18;4.60;;;2.80;;
51066;SDS011;37112;45.892;-123.962;2023-07-29T06:40:32;4.10;;;2.80;;
51066;SDS011;37112;45.892;-123.962;2023-07-29T06:42:45;4.30;;;2.80;;
51066;SDS011;37112;45.892;-123.962;2023-07-29T06:44:58;3.90;;;2.90;;
51066;SDS011;37112;45.892;-123.962;2023-07-29T06:47:11;7.10;;;3.10;;
51066;SDS011;37112;45.892;-123.962;2023-07-29T06:49:25;4.70;;;2.60;;
51066;SDS011;37112;45.892;-123.962;2023-07-29T06:51:39;4.30;;;2.50;;
51066;SDS011;37112;45.892;-123.962;2023-07-29T06:53:52;5.10;;;2.20;;
51066;SDS011;37112;45.892;-123.962;2023-07-29T06:56:07;7.00;;;2.20;;
51066;SDS011;37112;45.892;-123.962;2023-07-29T06:58:20;5.60;;;2.80;;
51066;SDS011;37112;45.892;-123.962;2023-07-29T07:00:34;6.90;;;3.30;;
51066;SDS011;37112;45.892;-123.962;2023-07-29T07:02:47;6.80;;;2.70;;
51066;SDS011;37112;45.892;-123.962;2023-07-29T07:05:00;5.00;;;3.30;;
51066;SDS011;37112;45.892;-123.962;2023-07-29T07:07:18;5.90;;;2.60;;
51066;SDS011;37112;45.892;-123.962;2023-07-29T07:09:33;4.40;;;3.10;;
51066;SDS011;37112;45.892;-123.962;2023-07-29T07:11:46;8.30;;;2.60;;
51066;SDS011;37112;45.892;-123.962;2023-07-29T07:14:00;8.50;;;4.10;;
51066;SDS011;37112;45.892;-123.962;2023-07-29T07:16:14;10.70;;;5.00;;
51066;SDS011;37112;45.892;-123.962;2023-07-29T07:18:29;11.20;;;4.80;;
51066;SDS011;37112;45.892;-123.962;2023-07-29T07:20:42;9.80;;;7.20;;
51066;SDS011;37112;45.892;-123.962;2023-07-29T07:22:59;11.20;;;9.10;;
51066;SDS011;37112;45.892;-123.962;2023-07-29T07:25:13;11.80;;;6.80;;
51066;SDS011;37112;45.892;-123.962;2023-07-29T07:27:26;13.60;;;10.00;;
51066;SDS011;37112;45.892;-123.962;2023-07-29T07:29:43;15.60;;;8.40;;
51066;SDS011;37112;45.892;-123.962;2023-07-29T07:31:57;17.90;;;9.90;;
51066;SDS011;37112;45.892;-123.962;2023-07-29T07:34:11;14.30;;;8.00;;
51066;SDS011;37112;45.892;-123.962;2023-07-29T07:36:25;12.30;;;7.50;;
51066;SDS011;37112;45.892;-123.962;2023-07-29T07:38:38;9.20;;;4.90;;
51066;SDS011;37112;45.892;-123.962;2023-07-29T07:40:55;6.20;;;3.40;;
51066;SDS011;37112;45.892;-123.962;2023-07-29T07:43:09;8.40;;;4.90;;
51066;SDS011;37112;45.892;-123.962;2023-07-29T07:45:23;9.30;;;4.70;;
51066;SDS011;37112;45.892;-123.962;2023-07-29T07:47:36;10.90;;;3.80;;
51066;SDS011;37112;45.892;-123.962;2023-07-29T07:49:49;9.80;;;2.80;;
51066;SDS011;37112;45.892;-123.962;2023-07-29T07:52:02;6.60;;;3.00;;
51066;SDS011;37112;45.892;-123.962;2023-07-29T07:54:17;8.80;;;2.40;;
51066;SDS011;37112;45.892;-123.962;2023-07-29T07:56:31;6.40;;;2.90;;
51066;SDS011;37112;45.892;-123.962;2023-07-29T07:58:45;3.80;;;1.60;;
51066;SDS011;37112;45.892;-123.962;2023-07-29T08:01:02;4.00;;;1.80;;
51066;SDS011;37112;45.892;-123.962;2023-07-29T08:03:17;3.30;;;1.80;;
51066;SDS011;37112;45.892;-123.962;2023-07-29T08:05:31;4.90;;;1.60;;
51066;SDS011;37112;45.892;-123.962;2023-07-29T08:07:45;7.40;;;2.90;;
51066;SDS011;37112;45.892;-123.962;2023-07-29T08:10:00;4.20;;;1.50;;
51066;SDS011;37112;45.892;-123.962;2023-07-29T08:12:14;6.30;;;2.40;;
51066;SDS011;37112;45.892;-123.962;2023-07-29T08:14:27;6.30;;;2.40;;
51066;SDS011;37112;45.892;-123.962;2023-07-29T08:16:40;6.70;;;2.40;;
51066;SDS011;37112;45.892;-123.962;2023-07-29T08:18:54;5.90;;;1.90;;
51066;SDS011;37112;45.892;-123.962;2023-07-29T08:21:07;4.30;;;2.10;;
51066;SDS011;37112;45.892;-123.962;2023-07-29T08:23:20;6.00;;;1.80;;
51066;SDS011;37112;45.892;-123.962;2023-07-29T08:25:34;4.50;;;1.90;;
51066;SDS011;37112;45.892;-123.962;2023-07-29T08:27:47;4.10;;;2.10;;
51066;SDS011;37112;45.892;-123.962;2023-07-29T08:30:01;4.20;;;1.60;;
51066;SDS011;37112;45.892;-123.962;2023-07-29T08:32:16;9.10;;;2.20;;
51066;SDS011;37112;45.892;-123.962;2023-07-29T08:34:29;6.20;;;2.00;;
51066;SDS011;37112;45.892;-123.962;2023-07-29T08:36:43;3.50;;;1.80;;
51066;SDS011;37112;45.892;-123.962;2023-07-29T08:39:00;5.50;;;2.10;;
51066;SDS011;37112;45.892;-123.962;2023-07-29T08:41:16;9.50;;;2.80;;
51066;SDS011;37112;45.892;-123.962;2023-07-29T08:43:35;6.00;;;1.90;;
51066;SDS011;37112;45.892;-123.962;2023-07-29T08:45:53;3.60;;;1.80;;
51066;SDS011;37112;45.892;-123.962;2023-07-29T08:48:08;7.40;;;2.20;;
51066;SDS011;37112;45.892;-123.962;2023-07-29T08:50:26;4.50;;;2.10;;
51066;SDS011;37112;45.892;-123.962;2023-07-29T08:52:39;5.20;;;2.50;;
51066;SDS011;37112;45.892;-123.962;2023-07-29T08:54:54;3.90;;;2.20;;
51066;SDS011;37112;45.892;-123.962;2023-07-29T08:57:09;5.00;;;2.00;;
51066;SDS011;37112;45.892;-123.962;2023-07-29T08:59:24;8.40;;;2.40;;
51066;SDS011;37112;45.892;-123.962;2023-07-29T09:01:40;9.40;;;2.40;;
51066;SDS011;37112;45.892;-123.962;2023-07-29T09:03:55;6.70;;;2.20;;
51066;SDS011;37112;45.892;-123.962;2023-07-29T09:06:09;5.00;;;1.90;;
51066;SDS011;37112;45.892;-123.962;2023-07-29T09:08:24;5.90;;;2.30;;
51066;SDS011;37112;45.892;-123.962;2023-07-29T09:10:40;5.40;;;2.40;;
51066;SDS011;37112;45.892;-123.962;2023-07-29T09:12:54;5.30;;;2.30;;
51066;SDS011;37112;45.892;-123.962;2023-07-29T09:15:09;8.20;;;1.60;;
51066;SDS011;37112;45.892;-123.962;2023-07-29T09:17:23;4.00;;;2.10;;
51066;SDS011;37112;45.892;-123.962;2023-07-29T09:19:37;5.50;;;2.40;;
51066;SDS011;37112;45.892;-123.962;2023-07-29T09:21:53;10.80;;;3.00;;
51066;SDS011;37112;45.892;-123.962;2023-07-29T09:24:10;4.40;;;1.40;;
51066;SDS011;37112;45.892;-123.962;2023-07-29T09:26:26;7.20;;;2.20;;
51066;SDS011;37112;45.892;-123.962;2023-07-29T09:28:56;5.10;;;2.50;;
51066;SDS011;37112;45.892;-123.962;2023-07-29T09:31:18;5.80;;;2.60;;
51066;SDS011;37112;45.892;-123.962;2023-07-29T09:33:35;5.50;;;2.40;;
51066;SDS011;37112;45.892;-123.962;2023-07-29T09:35:49;6.90;;;1.90;;
51066;SDS011;37112;45.892;-123.962;2023-07-29T09:38:03;7.00;;;3.00;;
51066;SDS011;37112;45.892;-123.962;2023-07-29T09:40:18;3.30;;;1.60;;
51066;SDS011;37112;45.892;-123.962;2023-07-29T09:42:34;5.10;;;2.50;;
51066;SDS011;37112;45.892;-123.962;2023-07-29T09:44:48;3.50;;;1.90;;
51066;SDS011;37112;45.892;-123.962;2023-07-29T09:47:01;4.90;;;2.20;;
51066;SDS011;37112;45.892;-123.962;2023-07-29T09:49:15;4.10;;;1.60;;
51066;SDS011;37112;45.892;-123.962;2023-07-29T09:51:29;3.20;;;1.70;;
51066;SDS011;37112;45.892;-123.962;2023-07-29T09:53:48;3.20;;;2.10;;
51066;SDS011;37112;45.892;-123.962;2023-07-29T09:56:02;5.60;;;1.40;;
51066;SDS011;37112;45.892;-123.962;2023-07-29T09:58:16;5.20;;;1.70;;
51066;SDS011;37112;45.892;-123.962;2023-07-29T10:00:38;3.40;;;1.50;;
51066;SDS011;37112;45.892;-123.962;2023-07-29T10:02:52;6.00;;;1.80;;
51066;SDS011;37112;45.892;-123.962;2023-07-29T10:05:07;6.00;;;2.40;;
51066;SDS011;37112;45.892;-123.962;2023-07-29T10:07:21;7.20;;;2.70;;
51066;SDS011;37112;45.892;-123.962;2023-07-29T10:09:35;3.30;;;1.90;;
51066;SDS011;37112;45.892;-123.962;2023-07-29T10:11:50;4.40;;;2.00;;
51066;SDS011;37112;45.892;-123.962;2023-07-29T10:14:05;5.30;;;1.80;;
51066;SDS011;37112;45.892;-123.962;2023-07-29T10:16:20;4.70;;;1.80;;
51066;SDS011;37112;45.892;-123.962;2023-07-29T10:18:37;7.80;;;2.30;;
51066;SDS011;37112;45.892;-123.962;2023-07-29T10:20:51;5.90;;;2.90;;
51066;SDS011;37112;45.892;-123.962;2023-07-29T10:23:06;5.30;;;1.60;;
51066;SDS011;37112;45.892;-123.962;2023-07-29T10:25:21;4.90;;;2.20;;
51066;SDS011;37112;45.892;-123.962;2023-07-29T10:27:38;2.80;;;2.10;;
51066;SDS011;37112;45.892;-123.962;2023-07-29T10:29:58;3.70;;;2.10;;
51066;SDS011;37112;45.892;-123.962;2023-07-29T10:32:13;10.10;;;2.90;;
51066;SDS011;37112;45.892;-123.962;2023-07-29T10:34:31;4.40;;;1.90;;
51066;SDS011;37112;45.892;-123.962;2023-07-29T10:36:46;3.30;;;1.80;;
51066;SDS011;37112;45.892;-123.962;2023-07-29T10:39:01;3.40;;;2.00;;
51066;SDS011;37112;45.892;-123.962;2023-07-29T10:41:18;12.30;;;3.90;;
51066;SDS011;37112;45.892;-123.962;2023-07-29T10:43:33;3.10;;;1.70;;
51066;SDS011;37112;45.892;-123.962;2023-07-29T10:45:48;3.40;;;2.20;;
51066;SDS011;37112;45.892;-123.962;2023-07-29T10:50:47;4.70;;;1.80;;
51066;SDS011;37112;45.892;-123.962;2023-07-29T10:53:01;3.60;;;2.00;;
51066;SDS011;37112;45.892;-123.962;2023-07-29T10:55:27;4.80;;;1.90;;
51066;SDS011;37112;45.892;-123.962;2023-07-29T10:57:43;5.30;;;2.10;;
51066;SDS011;37112;45.892;-123.962;2023-07-29T10:59:58;4.00;;;2.40;;
51066;SDS011;37112;45.892;-123.962;2023-07-29T11:02:17;4.40;;;1.90;;
51066;SDS011;37112;45.892;-123.962;2023-07-29T11:04:31;5.50;;;2.30;;
51066;SDS011;37112;45.892;-123.962;2023-07-29T11:09:55;3.40;;;1.90;;
51066;SDS011;37112;45.892;-123.962;2023-07-29T11:14:53;4.80;;;2.10;;
51066;SDS011;37112;45.892;-123.962;2023-07-29T11:17:07;3.50;;;1.60;;
51066;SDS011;37112;45.892;-123.962;2023-07-29T11:19:21;3.10;;;1.70;;
51066;SDS011;37112;45.892;-123.962;2023-07-29T11:21:37;8.90;;;3.00;;
51066;SDS011;37112;45.892;-123.962;2023-07-29T11:23:52;3.60;;;2.00;;
51066;SDS011;37112;45.892;-123.962;2023-07-29T11:26:06;4.10;;;2.00;;
51066;SDS011;37112;45.892;-123.962;2023-07-29T11:28:22;7.20;;;2.10;;
51066;SDS011;37112;45.892;-123.962;2023-07-29T11:30:36;5.50;;;2.50;;
51066;SDS011;37112;45.892;-123.962;2023-07-29T11:32:52;4.10;;;1.90;;
51066;SDS011;37112;45.892;-123.962;2023-07-29T11:35:07;6.70;;;2.20;;
51066;SDS011;37112;45.892;-123.962;2023-07-29T11:37:23;4.60;;;2.40;;
51066;SDS011;37112;45.892;-123.962;2023-07-29T11:39:41;4.30;;;2.00;;
51066;SDS011;37112;45.892;-123.962;2023-07-29T11:41:55;3.50;;;1.90;;
51066;SDS011;37112;45.892;-123.962;2023-07-29T11:44:16;4.40;;;2.10;;
51066;SDS011;37112;45.892;-123.962;2023-07-29T11:46:30;5.30;;;1.90;;
51066;SDS011;37112;45.892;-123.962;2023-07-29T11:48:44;3.80;;;2.10;;
51066;SDS011;37112;45.892;-123.962;2023-07-29T11:50:58;5.70;;;2.40;;
51066;SDS011;37112;45.892;-123.962;2023-07-29T11:53:13;4.80;;;2.30;;
51066;SDS011;37112;45.892;-123.962;2023-07-29T11:55:26;9.10;;;3.60;;
51066;SDS011;37112;45.892;-123.962;2023-07-29T11:57:40;4.70;;;2.10;;
51066;SDS011;37112;45.892;-123.962;2023-07-29T11:59:55;4.50;;;1.70;;
51066;SDS011;37112;45.892;-123.962;2023-07-29T12:02:15;6.00;;;2.20;;
51066;SDS011;37112;45.892;-123.962;2023-07-29T12:04:29;5.50;;;1.70;;
51066;SDS011;37112;45.892;-123.962;2023-07-29T12:06:43;6.30;;;2.00;;
51066;SDS011;37112;45.892;-123.962;2023-07-29T12:08:57;5.80;;;2.40;;
51066;SDS011;37112;45.892;-123.962;2023-07-29T12:11:12;4.40;;;1.90;;
51066;SDS011;37112;45.892;-123.962;2023-07-29T12:13:26;2.90;;;1.90;;
51066;SDS011;37112;45.892;-123.962;2023-07-29T12:15:40;4.50;;;2.20;;
51066;SDS011;37112;45.892;-123.962;2023-07-29T12:17:57;4.20;;;2.20;;
51066;SDS011;37112;45.892;-123.962;2023-07-29T12:20:13;5.10;;;2.10;;
51066;SDS011;37112;45.892;-123.962;2023-07-29T12:22:30;4.40;;;1.90;;
51066;SDS011;37112;45.892;-123.962;2023-07-29T12:24:43;4.00;;;2.30;;
51066;SDS011;37112;45.892;-123.962;2023-07-29T12:26:57;4.90;;;2.10;;
51066;SDS011;37112;45.892;-123.962;2023-07-29T12:29:14;6.10;;;2.00;;
51066;SDS011;37112;45.892;-123.962;2023-07-29T12:31:33;4.50;;;2.10;;
51066;SDS011;37112;45.892;-123.962;2023-07-29T12:33:47;4.40;;;1.50;;
51066;SDS011;37112;45.892;-123.962;2023-07-29T12:36:06;6.50;;;2.10;;
51066;SDS011;37112;45.892;-123.962;2023-07-29T12:38:23;3.50;;;1.90;;
51066;SDS011;37112;45.892;-123.962;2023-07-29T12:40:39;4.70;;;2.40;;
51066;SDS011;37112;45.892;-123.962;2023-07-29T12:42:53;5.40;;;2.00;;
51066;SDS011;37112;45.892;-123.962;2023-07-29T12:45:09;5.90;;;1.80;;
51066;SDS011;37112;45.892;-123.962;2023-07-29T12:47:22;2.90;;;1.70;;
51066;SDS011;37112;45.892;-123.962;2023-07-29T12:49:40;5.40;;;2.20;;
51066;SDS011;37112;45.892;-123.962;2023-07-29T12:51:53;5.40;;;2.10;;
51066;SDS011;37112;45.892;-123.962;2023-07-29T12:54:08;7.40;;;2.20;;
51066;SDS011;37112;45.892;-123.962;2023-07-29T12:56:22;3.40;;;1.90;;
51066;SDS011;37112;45.892;-123.962;2023-07-29T12:58:36;2.90;;;1.70;;
51066;SDS011;37112;45.892;-123.962;2023-07-29T13:00:50;6.10;;;2.00;;
51066;SDS011;37112;45.892;-123.962;2023-07-29T13:03:03;3.80;;;2.30;;